createdAt,value
2023-01-13T00:01:08.685Z,18.20
2023-01-13T00:06:06.523Z,18.00
2023-01-13T00:13:35.547Z,18.20
2023-01-13T00:16:06.183Z,18.30
2023-01-13T00:21:05.102Z,17.80
2023-01-13T00:23:35.337Z,18.10
2023-01-13T00:26:07.294Z,18.00
2023-01-13T00:28:37.391Z,18.10
2023-01-13T00:36:08.752Z,18.20
2023-01-13T00:38:38.973Z,18.30
2023-01-13T00:41:09.343Z,18.20
2023-01-13T00:43:38.638Z,18.00
2023-01-13T00:46:09.096Z,17.90
2023-01-13T00:51:08.501Z,17.90
2023-01-13T00:53:38.773Z,18.30
2023-01-13T00:56:10.412Z,18.10
2023-01-13T00:58:40.032Z,18.10
2023-01-13T01:01:10.170Z,18.10
2023-01-13T01:06:09.054Z,18.10
2023-01-13T01:11:08.384Z,17.90
2023-01-13T01:13:37.665Z,18.30
2023-01-13T01:16:09.592Z,18.00
2023-01-13T01:18:39.177Z,18.00
2023-01-13T01:21:09.059Z,18.00
2023-01-13T01:26:12.025Z,18.00
2023-01-13T01:31:12.101Z,18.20
2023-01-13T01:36:11.385Z,18.10
2023-01-13T01:38:40.233Z,18.20
2023-01-13T01:41:09.208Z,17.80
2023-01-13T01:44:06.095Z,18.50
2023-01-13T01:46:37.980Z,18.30
2023-01-13T01:49:16.570Z,18.60
2023-01-13T01:51:49.584Z,18.20
2023-01-13T01:54:22.286Z,18.40
2023-01-13T01:56:51.652Z,18.20
2023-01-13T02:01:50.349Z,18.00
2023-01-13T02:04:24.440Z,18.20
2023-01-13T02:06:54.857Z,18.10
2023-01-13T02:14:39.974Z,17.70
2023-01-13T02:17:26.664Z,18.10
2023-01-13T02:20:20.403Z,17.90
2023-01-13T02:23:32.647Z,18.10
2023-01-13T02:26:19.816Z,18.40
2023-01-13T02:29:26.118Z,18.10
2023-01-13T02:32:02.184Z,17.90
2023-01-13T02:34:39.079Z,17.90
2023-01-13T02:37:11.523Z,17.90
2023-01-13T02:39:47.416Z,18.00
2023-01-13T02:42:37.440Z,18.10
2023-01-13T02:50:11.293Z,18.00
2023-01-13T02:55:11.817Z,18.10
2023-01-13T03:00:12.458Z,18.10
2023-01-13T03:02:41.998Z,18.00
2023-01-13T03:05:15.422Z,18.40
2023-01-13T03:08:10.078Z,18.20
2023-01-13T03:10:53.110Z,18.10
2023-01-13T03:13:39.684Z,17.80
2023-01-13T03:16:19.154Z,17.80
2023-01-13T03:18:53.593Z,17.80
2023-01-13T03:21:26.694Z,17.70
2023-01-13T03:24:02.889Z,17.90
2023-01-13T03:26:36.891Z,17.80
2023-01-13T03:29:11.457Z,18.40
2023-01-13T03:31:48.405Z,18.10
2023-01-13T03:34:23.787Z,17.70
2023-01-13T03:36:55.318Z,17.90
2023-01-13T03:39:28.200Z,17.80
2023-01-13T03:42:00.371Z,17.90
2023-01-13T03:44:33.833Z,17.90
2023-01-13T03:47:12.106Z,17.80
2023-01-13T03:49:50.330Z,17.70
2023-01-13T03:52:24.194Z,17.90
2023-01-13T03:54:56.747Z,18.00
2023-01-13T03:57:30.937Z,17.10
2023-01-13T04:00:04.059Z,17.80
2023-01-13T04:02:42.031Z,17.80
2023-01-13T04:05:12.218Z,17.60
2023-01-13T04:07:48.128Z,17.80
2023-01-13T04:10:20.135Z,18.00
2023-01-13T04:13:04.231Z,17.60
2023-01-13T04:15:38.261Z,17.70
2023-01-13T04:18:15.264Z,17.70
2023-01-13T04:33:09.863Z,17.40
2023-01-13T04:38:10.276Z,17.70
2023-01-13T04:55:31.873Z,17.40
2023-01-13T04:58:04.667Z,17.50
2023-01-13T05:05:31.328Z,17.70
2023-01-13T05:07:59.769Z,17.60
2023-01-13T05:10:28.639Z,17.90
2023-01-13T05:13:15.860Z,18.00
2023-01-13T05:16:03.618Z,17.60
2023-01-13T05:18:33.502Z,17.70
2023-01-13T05:28:46.815Z,17.50
2023-01-13T05:31:14.998Z,17.80
2023-01-13T05:41:27.096Z,17.70
2023-01-13T05:43:56.612Z,18.30
2023-01-13T06:01:21.558Z,18.40
2023-01-13T06:16:14.012Z,17.20
2023-01-13T06:18:43.553Z,17.90
2023-01-13T06:26:14.859Z,18.30
2023-01-13T06:31:12.496Z,18.10
2023-01-13T06:36:15.668Z,18.20
2023-01-13T06:38:48.230Z,17.80
2023-01-13T06:53:39.903Z,18.60
2023-01-13T07:11:03.275Z,18.60
2023-01-13T07:23:48.347Z,18.50
2023-01-13T07:26:18.137Z,18.50
2023-01-13T07:31:17.480Z,18.50
2023-01-13T07:36:15.175Z,18.50
2023-01-13T07:41:31.922Z,18.70
2023-01-13T07:44:04.988Z,17.90
2023-01-13T08:01:27.875Z,18.50
2023-01-13T08:06:27.567Z,18.50
2023-01-13T08:13:57.598Z,18.30
2023-01-13T08:16:27.278Z,18.30
2023-01-13T08:31:20.307Z,19.20
2023-01-13T08:33:49.891Z,18.90
2023-01-13T08:41:37.944Z,19.10
2023-01-13T08:44:09.187Z,19.60
2023-01-13T08:46:38.020Z,19.20
2023-01-13T08:49:07.510Z,18.90
2023-01-13T09:04:02.924Z,20.30
2023-01-13T09:06:33.127Z,19.50
2023-01-13T09:11:51.107Z,19.40
2023-01-13T09:14:20.492Z,19.90
2023-01-13T09:21:47.627Z,19.60
2023-01-13T09:34:37.126Z,19.60
2023-01-13T09:37:08.199Z,19.20
2023-01-13T09:39:37.736Z,19.50
2023-01-13T09:42:34.560Z,19.40
2023-01-13T09:45:07.054Z,18.90
2023-01-13T09:47:41.108Z,19.20
2023-01-13T09:50:25.869Z,20.10
2023-01-13T09:52:55.410Z,20.50
2023-01-13T09:55:31.237Z,19.70
2023-01-13T10:00:37.753Z,19.50
2023-01-13T10:03:19.347Z,19.20
2023-01-13T10:06:01.042Z,20.30
2023-01-13T10:08:34.391Z,19.60
2023-01-13T10:13:58.517Z,19.30
2023-01-13T10:16:32.668Z,20.20
2023-01-13T10:19:07.077Z,19.50
2023-01-13T10:22:12.001Z,19.80
2023-01-13T10:25:20.498Z,20.60
2023-01-13T10:27:50.844Z,19.80
2023-01-13T10:30:22.157Z,20.00
2023-01-13T10:32:56.048Z,19.80
2023-01-13T10:36:04.122Z,20.10
2023-01-13T10:38:38.947Z,19.90
2023-01-13T10:41:19.367Z,19.70
2023-01-13T10:44:00.640Z,20.20
2023-01-13T10:46:30.469Z,19.60
2023-01-13T10:49:02.465Z,20.00
2023-01-13T10:51:32.204Z,20.40
2023-01-13T10:54:02.761Z,19.70
2023-01-13T10:56:35.032Z,20.70
2023-01-13T10:59:19.033Z,20.50
2023-01-13T11:02:01.195Z,20.10
2023-01-13T11:04:33.923Z,20.60
2023-01-13T11:07:03.574Z,20.00
2023-01-13T11:12:04.093Z,19.30
2023-01-13T11:14:42.623Z,19.40
2023-01-13T11:17:30.133Z,19.30
2023-01-13T11:20:07.154Z,20.20
2023-01-13T11:22:40.449Z,19.30
2023-01-13T11:25:13.905Z,20.30
2023-01-13T11:27:47.047Z,20.00
2023-01-13T11:33:06.217Z,20.80
2023-01-13T11:35:37.300Z,21.00
2023-01-13T11:38:13.895Z,21.20
2023-01-13T11:40:46.522Z,20.20
2023-01-13T11:43:23.237Z,20.60
2023-01-13T11:45:54.864Z,20.60
2023-01-13T11:48:27.239Z,20.70
2023-01-13T11:51:00.145Z,20.40
2023-01-13T11:53:50.498Z,21.20
2023-01-13T11:56:46.747Z,20.70
2023-01-13T11:59:44.687Z,20.60
2023-01-13T12:02:23.301Z,20.50
2023-01-13T12:05:00.775Z,19.90
2023-01-13T12:07:43.235Z,21.10
2023-01-13T12:10:17.135Z,19.50
2023-01-13T12:12:53.073Z,20.10
2023-01-13T12:15:41.816Z,19.90
2023-01-13T12:18:40.662Z,20.20
2023-01-13T12:23:50.301Z,20.20
2023-01-13T12:26:18.809Z,20.00
2023-01-13T12:28:52.879Z,20.90
2023-01-13T12:31:24.394Z,19.90
2023-01-13T12:34:07.247Z,20.50
2023-01-13T12:36:47.187Z,20.50
2023-01-13T12:39:20.755Z,19.80
2023-01-13T12:42:11.930Z,19.90
2023-01-13T12:45:06.723Z,20.40
2023-01-13T12:47:38.269Z,20.00
2023-01-13T12:50:40.939Z,20.40
2023-01-13T12:53:32.895Z,20.50
2023-01-13T12:56:30.677Z,20.80
2023-01-13T12:59:50.054Z,20.20
2023-01-13T13:02:37.229Z,20.10
2023-01-13T13:08:02.109Z,20.60
2023-01-13T13:10:33.343Z,20.00
2023-01-13T13:13:20.562Z,19.80
2023-01-13T13:15:50.428Z,19.80
2023-01-13T13:18:27.585Z,20.40
2023-01-13T13:21:04.071Z,20.90
2023-01-13T13:24:04.394Z,19.80
2023-01-13T13:26:39.166Z,21.10
2023-01-13T13:29:22.729Z,20.60
2023-01-13T13:32:32.088Z,20.30
2023-01-13T13:35:27.441Z,21.40
2023-01-13T13:38:22.524Z,21.10
2023-01-13T13:41:08.721Z,20.60
2023-01-13T13:43:58.665Z,20.70
2023-01-13T13:46:45.330Z,20.40
2023-01-13T13:49:14.302Z,21.30
2023-01-13T13:51:49.430Z,20.50
2023-01-13T13:54:22.528Z,20.10
2023-01-13T13:56:52.371Z,21.00
2023-01-13T13:59:24.082Z,20.90
2023-01-13T14:02:01.742Z,20.50
2023-01-13T14:04:32.776Z,20.60
2023-01-13T14:07:04.935Z,20.80
2023-01-13T14:09:42.990Z,20.40
2023-01-13T14:12:19.976Z,20.20
2023-01-13T14:14:49.802Z,20.80
2023-01-13T14:17:23.591Z,20.50
2023-01-13T14:19:57.927Z,20.10
2023-01-13T14:22:27.912Z,20.30
2023-01-13T14:24:57.872Z,20.50
2023-01-13T14:27:27.711Z,20.90
2023-01-13T14:29:58.314Z,20.20
2023-01-13T14:32:33.105Z,20.70
2023-01-13T14:47:34.387Z,19.80
2023-01-13T14:50:05.852Z,20.30
2023-01-13T14:52:38.326Z,19.80
2023-01-13T14:55:29.481Z,20.00
2023-01-13T15:05:49.464Z,20.30
2023-01-13T15:08:37.742Z,20.50
2023-01-13T15:11:09.000Z,20.20
2023-01-13T15:13:42.590Z,20.20
2023-01-13T15:16:20.577Z,20.30
2023-01-13T15:18:49.436Z,20.20
2023-01-13T15:21:18.305Z,19.90
2023-01-13T15:23:48.365Z,20.10
2023-01-13T15:26:22.574Z,20.20
2023-01-13T15:28:52.059Z,19.90
2023-01-13T15:33:52.240Z,19.70
2023-01-13T15:36:27.349Z,20.00
2023-01-13T15:38:58.723Z,20.00
2023-01-13T15:41:45.058Z,20.10
2023-01-13T15:44:34.058Z,19.30
2023-01-13T15:49:39.343Z,20.00
2023-01-13T15:52:21.556Z,19.70
2023-01-13T15:54:56.163Z,19.90
2023-01-13T15:57:26.665Z,19.40
2023-01-13T15:59:58.999Z,19.80
2023-01-13T16:07:26.271Z,20.50
2023-01-13T16:09:55.884Z,19.40
2023-01-13T16:17:22.570Z,20.10
2023-01-13T16:19:50.926Z,19.60
2023-01-13T16:22:21.095Z,19.80
2023-01-13T16:27:21.795Z,20.30
2023-01-13T16:29:51.728Z,19.70
2023-01-13T16:34:49.626Z,19.70
2023-01-13T16:37:23.764Z,19.60
2023-01-13T16:42:24.710Z,19.80
2023-01-13T16:49:51.434Z,19.40
2023-01-13T16:52:22.850Z,19.20
2023-01-13T16:59:49.321Z,19.10
2023-01-13T17:02:23.057Z,19.50
2023-01-13T17:14:49.058Z,19.50
2023-01-13T17:17:24.952Z,19.30
2023-01-13T17:22:23.459Z,19.40
2023-01-13T17:29:53.703Z,19.50
2023-01-13T17:32:23.635Z,19.00
2023-01-13T17:37:22.811Z,18.70
2023-01-13T17:44:54.897Z,19.20
2023-01-13T18:02:17.653Z,19.10
2023-01-13T18:19:59.217Z,19.20
2023-01-13T18:25:32.009Z,19.30
2023-01-13T18:30:29.391Z,19.30
2023-01-13T18:35:27.513Z,19.10
2023-01-13T18:45:21.694Z,19.40
2023-01-13T18:52:48.504Z,20.20
2023-01-13T18:55:18.474Z,19.30
2023-01-13T19:00:19.039Z,19.30
2023-01-13T19:07:50.433Z,19.40
2023-01-13T19:10:21.794Z,20.00
2023-01-13T19:25:23.909Z,19.00
2023-01-13T19:30:25.013Z,19.30
2023-01-13T19:35:24.172Z,19.60
2023-01-13T19:38:01.850Z,19.30
2023-01-13T19:40:38.181Z,19.30
2023-01-13T19:50:51.263Z,19.40
2023-01-13T19:55:51.318Z,19.80
2023-01-13T19:58:20.254Z,19.50
2023-01-13T20:00:49.145Z,19.90
2023-01-13T20:03:19.236Z,20.30
2023-01-13T20:10:46.967Z,19.50
2023-01-13T20:13:17.433Z,18.80
2023-01-13T20:23:12.781Z,17.50
2023-01-13T20:25:43.489Z,17.70
2023-01-13T20:28:11.614Z,17.40
2023-01-13T20:33:11.454Z,17.50
2023-01-13T20:35:39.620Z,17.00
2023-01-13T20:38:07.748Z,16.50
2023-01-13T20:40:35.878Z,17.10
2023-01-13T20:43:03.300Z,17.10
2023-01-13T20:45:32.389Z,17.00
2023-01-13T20:48:02.708Z,17.00
2023-01-13T20:50:30.918Z,16.80
2023-01-13T20:52:59.029Z,17.30
2023-01-13T20:55:27.147Z,17.40
2023-01-13T20:57:55.319Z,17.00
2023-01-13T21:00:23.695Z,18.00
2023-01-13T21:02:52.771Z,17.90
2023-01-13T21:05:22.378Z,18.20
2023-01-13T21:07:50.543Z,17.90
2023-01-13T21:10:18.800Z,17.60
2023-01-13T21:13:04.260Z,18.20
2023-01-13T21:15:32.446Z,18.30
2023-01-13T21:20:48.087Z,18.50
2023-01-13T21:23:16.201Z,18.50
2023-01-13T21:25:45.248Z,17.50
2023-01-13T21:28:14.042Z,18.50
2023-01-13T21:30:43.987Z,18.80
2023-01-13T21:33:15.185Z,18.40
2023-01-13T21:38:13.774Z,18.10
2023-01-13T21:43:30.636Z,18.20
2023-01-13T21:51:14.575Z,18.50
2023-01-13T21:53:45.401Z,18.00
2023-01-13T21:56:13.886Z,18.30
2023-01-13T22:03:54.487Z,18.10
2023-01-13T22:06:26.040Z,17.90
2023-01-13T22:08:59.939Z,17.60
2023-01-13T22:14:13.053Z,17.90
2023-01-13T22:16:49.144Z,18.20
2023-01-13T22:26:44.632Z,17.80
2023-01-13T22:29:12.747Z,17.70
2023-01-13T22:31:40.886Z,17.90
2023-01-13T22:34:09.039Z,17.80
2023-01-13T22:36:37.139Z,17.60
2023-01-13T22:39:07.009Z,17.90
2023-01-13T22:41:36.500Z,17.80
2023-01-13T22:44:04.794Z,17.50
2023-01-13T22:49:01.370Z,17.60
2023-01-13T22:51:30.572Z,18.00
2023-01-13T22:53:58.770Z,17.80
2023-01-13T22:56:27.848Z,17.80
2023-01-13T22:58:58.921Z,17.70
2023-01-13T23:03:56.708Z,17.40
2023-01-13T23:08:54.370Z,17.60
2023-01-13T23:11:24.697Z,17.30
2023-01-13T23:14:00.240Z,17.40
2023-01-13T23:16:29.726Z,18.10
2023-01-13T23:21:32.592Z,17.60
2023-01-13T23:26:30.861Z,17.70
2023-01-13T23:29:05.019Z,17.60
2023-01-13T23:39:00.291Z,17.80
2023-01-13T23:41:29.794Z,17.60
2023-01-13T23:43:59.818Z,18.00
2023-01-13T23:46:29.775Z,17.50
2023-01-13T23:48:58.002Z,17.30
2023-01-13T23:53:55.713Z,18.00
2023-01-13T23:56:26.009Z,18.00
2023-01-13T23:58:54.632Z,17.20
